Time;durP1;ratioP1;P1;durP2;ratioP2;P2;SDS_P1;SDS_P2;PMS_P1;PMS_P2;Temp;Humidity;BMP_temperature;BMP_pressure;BME280_temperature;BME280_humidity;BME280_pressure;Samples;Min_cycle;Max_cycle;Signal;HPM_P1;HPM_P2
2022/08/26 00:00:39;;;;;;;;;;;;;;;25.93;49.73;100376.63;4974684;28;6780;-74
2022/08/26 00:03:04;;;;;;;;;;;;;;;25.92;50.04;100386.25;4997220;28;7228;-75
2022/08/26 00:05:30;;;;;;;;;;;;;;;25.91;50.14;100389.78;4980867;28;7833;-75
2022/08/26 00:07:56;;;;;;;;;;;;;;;25.90;50.61;100388.03;4977292;28;6792;-75
2022/08/26 00:10:22;;;;;;;;;;;;;;;25.91;50.49;100388.88;4969870;28;6776;-75
2022/08/26 00:12:48;;;;;;;;;;;;;;;25.92;50.42;100394.13;4966090;28;6950;-74
2022/08/26 00:15:18;;;;;;;;;;;;;;;25.94;50.74;100394.13;4980265;28;7171;-74
2022/08/26 00:17:45;;;;;;;;;;;;;;;25.96;50.74;100401.94;4967153;28;6801;-75
2022/08/26 00:20:15;;;;;;;;;;;;;;;25.97;50.71;100393.16;4965130;28;7864;-76
2022/08/26 00:22:40;;;;;;;;;;;;;;;25.97;50.90;100394.06;4963020;28;6983;-75
2022/08/26 00:25:08;;;;;;;;;;;;;;;25.97;50.63;100394.06;4981924;28;8230;-75
2022/08/26 00:27:34;;;;;;;;;;;;;;;25.98;51.02;100397.53;4978224;28;7265;-75
2022/08/26 00:30:01;;;;;;;;;;;;;;;25.99;50.93;100401.91;4965266;28;7143;-75
2022/08/26 00:32:27;;;;;;;;;;;;;;;25.98;51.22;100403.66;4958726;28;6998;-75
2022/08/26 00:34:53;;;;;;;;;;;;;;;25.98;51.46;100401.03;4962445;28;6788;-74
2022/08/26 00:37:18;;;;;;;;;;;;;;;26.00;51.44;100403.66;4956115;28;6783;-74
2022/08/26 00:39:44;;;;;;;;;;;;;;;26.03;51.15;100398.34;4949311;28;6804;-75
2022/08/26 00:42:10;;;;;;;;;;;;;;;26.05;51.17;100397.44;4963914;28;6804;-75
2022/08/26 00:44:35;;;;;;;;;;;;;;;26.07;51.01;100400.88;4966493;28;6878;-75
2022/08/26 00:47:08;;;;;;;;;;;;;;;26.10;51.19;100405.22;4967074;28;6806;-75
2022/08/26 00:49:46;;;;;;;;;;;;;;;26.11;51.02;100406.97;4980594;28;7376;-76
2022/08/26 00:52:18;;;;;;;;;;;;;;;26.09;50.88;100403.50;4968283;28;6983;-75
2022/08/26 00:54:58;;;;;;;;;;;;;;;26.09;51.01;100403.50;4974001;28;7445;-75
2022/08/26 00:57:25;;;;;;;;;;;;;;;26.08;51.10;100407.03;4976081;28;7165;-74
2022/08/26 00:59:57;;;;;;;;;;;;;;;26.07;51.48;100411.38;4941636;28;7053;-75
2022/08/26 01:02:23;;;;;;;;;;;;;;;26.09;51.20;100416.63;4977438;28;7214;-74
2022/08/26 01:05:00;;;;;;;;;;;;;;;26.09;51.55;100419.25;4958743;28;8076;-75
2022/08/26 01:07:29;;;;;;;;;;;;;;;26.08;51.84;100414.91;4960351;28;7459;-74
2022/08/26 01:09:59;;;;;;;;;;;;;;;26.07;51.70;100410.50;4964880;28;6788;-74
2022/08/26 01:12:31;;;;;;;;;;;;;;;26.05;51.36;100417.56;4968406;28;6963;-75
2022/08/26 01:14:57;;;;;;;;;;;;;;;26.02;51.97;100412.34;4943646;28;8125;-74
2022/08/26 01:17:22;;;;;;;;;;;;;;;25.99;51.64;100422.91;4964100;28;6856;-75
2022/08/26 01:19:58;;;;;;;;;;;;;;;25.98;52.19;100422.03;4964807;28;6796;-75
2022/08/26 01:22:54;;;;;;;;;;;;;;;25.96;51.45;100425.56;4961450;28;7222;-75
2022/08/26 01:25:24;;;;;;;;;;;;;;;25.95;52.04;100429.09;4963563;28;7172;-75
2022/08/26 01:27:54;;;;;;;;;;;;;;;25.93;52.24;100429.13;4967951;28;6871;-76
2022/08/26 01:30:20;;;;;;;;;;;;;;;25.90;52.20;100427.41;4958404;28;6931;-75
2022/08/26 01:32:49;;;;;;;;;;;;;;;25.89;52.00;100424.81;4963970;28;6788;-75
2022/08/26 01:35:14;;;;;;;;;;;;;;;25.88;52.25;100429.22;4993807;28;6812;-75
2022/08/26 01:37:40;;;;;;;;;;;;;;;25.88;52.29;100425.69;4958451;28;6840;-75
2022/08/26 01:40:15;;;;;;;;;;;;;;;25.88;52.61;100421.34;4985677;28;6795;-74
2022/08/26 01:42:42;;;;;;;;;;;;;;;25.86;52.58;100422.25;4956611;28;6979;-75
2022/08/26 01:45:18;;;;;;;;;;;;;;;25.84;52.75;100419.63;4969792;28;7148;-75
2022/08/26 01:47:48;;;;;;;;;;;;;;;25.84;52.50;100417.00;4992683;28;7164;-75
2022/08/26 01:50:22;;;;;;;;;;;;;;;25.84;52.51;100424.88;4972249;28;7256;-75
2022/08/26 01:52:50;;;;;;;;;;;;;;;25.85;52.66;100426.59;4961965;28;6816;-75
2022/08/26 01:55:19;;;;;;;;;;;;;;;25.85;52.59;100428.38;4988893;28;7186;-75
2022/08/26 01:57:50;;;;;;;;;;;;;;;25.83;52.72;100428.41;4974834;28;6992;-75
2022/08/26 02:00:17;;;;;;;;;;;;;;;25.81;52.61;100429.31;4974223;28;7231;-75
2022/08/26 02:02:47;;;;;;;;;;;;;;;25.79;52.90;100432.81;4977931;28;7086;-75
2022/08/26 02:05:20;;;;;;;;;;;;;;;25.76;53.18;100432.88;4959975;28;6797;-76
2022/08/26 02:07:49;;;;;;;;;;;;;;;25.74;53.15;100434.66;4962200;28;7837;-76
2022/08/26 02:10:15;;;;;;;;;;;;;;;25.73;53.61;100432.03;4961817;28;8210;-75
2022/08/26 02:12:41;;;;;;;;;;;;;;;25.68;53.64;100434.75;4956470;28;7044;-75
2022/08/26 02:15:11;;;;;;;;;;;;;;;25.65;53.81;100440.03;4959767;28;6992;-75
2022/08/26 02:17:44;;;;;;;;;;;;;;;25.60;53.53;100432.22;4959993;28;6808;-75
2022/08/26 02:20:15;;;;;;;;;;;;;;;25.60;54.08;100447.97;4975811;28;6816;-74
2022/08/26 02:22:43;;;;;;;;;;;;;;;25.59;53.85;100441.00;4959175;28;7908;-76
2022/08/26 02:25:37;;;;;;;;;;;;;;;25.59;53.68;100451.50;4961364;28;7031;-76
2022/08/26 02:28:03;;;;;;;;;;;;;;;25.56;54.39;100450.66;4985596;28;6808;-74
2022/08/26 02:30:32;;;;;;;;;;;;;;;25.55;53.69;100449.78;4978794;28;7173;-74
2022/08/26 02:33:02;;;;;;;;;;;;;;;25.56;54.21;100446.25;4961366;28;7213;-76
2022/08/26 02:35:30;;;;;;;;;;;;;;;25.57;53.75;100450.63;4988408;28;6803;-74
2022/08/26 02:37:58;;;;;;;;;;;;;;;25.57;53.70;100450.63;4959465;28;7706;-77
2022/08/26 02:40:31;;;;;;;;;;;;;;;25.57;54.03;100453.25;4989476;28;6792;-75
2022/08/26 02:42:57;;;;;;;;;;;;;;;25.55;53.95;100457.66;4959368;28;7455;-75
2022/08/26 02:45:25;;;;;;;;;;;;;;;25.55;53.99;100449.78;4974751;28;6954;-75
2022/08/26 02:47:51;;;;;;;;;;;;;;;25.56;54.04;100453.28;4973865;28;7706;-75
2022/08/26 02:50:17;;;;;;;;;;;;;;;25.56;53.51;100454.13;4976739;28;6962;-75
2022/08/26 02:52:42;;;;;;;;;;;;;;;25.56;53.61;100451.50;4996122;28;6927;-75
2022/08/26 02:55:08;;;;;;;;;;;;;;;25.55;53.76;100455.03;4971111;28;7268;-76
2022/08/26 02:57:34;;;;;;;;;;;;;;;25.57;54.21;100449.78;4972413;28;7027;-76
2022/08/26 03:00:00;;;;;;;;;;;;;;;25.57;53.83;100448.00;4961265;28;7134;-76
2022/08/26 03:02:27;;;;;;;;;;;;;;;25.56;53.53;100441.03;4973855;28;6967;-76
2022/08/26 03:04:53;;;;;;;;;;;;;;;25.53;53.90;100438.44;4958907;28;7193;-76
2022/08/26 03:07:19;;;;;;;;;;;;;;;25.49;53.59;100437.59;4949288;28;7107;-76
2022/08/26 03:09:45;;;;;;;;;;;;;;;25.49;53.57;100432.34;4975165;28;7299;-76
2022/08/26 03:12:11;;;;;;;;;;;;;;;25.48;53.94;100443.72;4976963;28;8455;-75
2022/08/26 03:14:39;;;;;;;;;;;;;;;25.47;54.46;100444.63;4959023;28;7988;-76
2022/08/26 03:17:05;;;;;;;;;;;;;;;25.47;54.18;100441.09;4957263;28;6792;-75
2022/08/26 03:19:30;;;;;;;;;;;;;;;25.47;54.37;100446.34;4958524;28;7137;-76
2022/08/26 03:21:57;;;;;;;;;;;;;;;25.46;53.85;100439.38;4988521;28;6980;-76
2022/08/26 03:24:24;;;;;;;;;;;;;;;25.47;53.93;100447.25;4959025;28;6804;-76
2022/08/26 03:26:50;;;;;;;;;;;;;;;25.45;53.63;100435.91;4961326;28;6796;-75
2022/08/26 03:32:02;;;;;;;;;;;;;;;25.43;54.06;100447.31;4972528;28;6863;-76
2022/08/26 03:34:28;;;;;;;;;;;;;;;25.41;54.26;100441.22;4991958;28;6954;-76
2022/08/26 03:36:54;;;;;;;;;;;;;;;25.40;54.48;100445.56;4951546;28;8260;-75
2022/08/26 03:39:19;;;;;;;;;;;;;;;25.40;53.82;100439.44;4955509;28;6767;-75
2022/08/26 03:41:45;;;;;;;;;;;;;;;25.42;54.25;100445.56;4954196;28;7041;-75
2022/08/26 03:44:11;;;;;;;;;;;;;;;25.41;54.34;100447.31;4957255;28;10467;-75
2022/08/26 03:46:38;;;;;;;;;;;;;;;25.42;54.19;100445.56;4964927;28;8245;-76
2022/08/26 03:49:05;;;;;;;;;;;;;;;25.43;53.82;100453.41;4951834;28;6796;-76
2022/08/26 03:51:32;;;;;;;;;;;;;;;25.42;54.29;100449.03;4953076;28;7956;-76
2022/08/26 03:53:59;;;;;;;;;;;;;;;25.43;53.92;100450.78;4969107;28;7209;-75
2022/08/26 03:56:26;;;;;;;;;;;;;;;25.43;54.32;100447.31;4957751;28;7876;-75
2022/08/26 03:58:52;;;;;;;;;;;;;;;25.42;53.92;100448.19;4956892;28;6800;-75
2022/08/26 04:01:19;;;;;;;;;;;;;;;25.40;54.23;100444.69;4971070;28;6868;-75
2022/08/26 04:03:57;;;;;;;;;;;;;;;25.35;53.66;100443.00;4945259;28;6915;-75
2022/08/26 04:06:36;;;;;;;;;;;;;;;25.34;54.20;100445.63;4950895;28;6816;-74
2022/08/26 04:09:10;;;;;;;;;;;;;;;25.32;53.91;100453.56;4957449;28;6974;-75
2022/08/26 04:11:38;;;;;;;;;;;;;;;25.31;53.87;100451.81;4956908;28;6801;-75
2022/08/26 04:14:09;;;;;;;;;;;;;;;25.32;53.90;100448.31;4958911;28;7399;-75
2022/08/26 04:16:35;;;;;;;;;;;;;;;25.31;54.09;100456.19;4960087;28;7135;-75
2022/08/26 04:19:01;;;;;;;;;;;;;;;25.30;53.53;100449.19;4955842;28;7256;-75
2022/08/26 04:21:27;;;;;;;;;;;;;;;25.29;54.12;100450.09;4961038;28;6954;-75
2022/08/26 04:23:53;;;;;;;;;;;;;;;25.29;53.52;100450.09;4973350;28;6871;-75
2022/08/26 04:26:21;;;;;;;;;;;;;;;25.27;53.84;100454.50;4959982;28;6796;-75
2022/08/26 04:28:48;;;;;;;;;;;;;;;25.24;54.15;100450.16;4962878;28;6986;-75
2022/08/26 04:31:17;;;;;;;;;;;;;;;25.24;53.96;100458.03;4962500;28;6816;-75
2022/08/26 04:33:45;;;;;;;;;;;;;;;25.23;54.10;100453.66;4992811;28;6808;-75
2022/08/26 04:36:11;;;;;;;;;;;;;;;25.23;53.73;100453.66;4962851;28;7006;-75
2022/08/26 04:38:37;;;;;;;;;;;;;;;25.20;53.59;100457.19;4962963;28;6808;-75
2022/08/26 04:41:07;;;;;;;;;;;;;;;25.18;53.88;100451.09;4966318;28;7059;-74
2022/08/26 04:43:33;;;;;;;;;;;;;;;25.15;53.45;100451.09;4962755;28;6808;-75
2022/08/26 04:46:03;;;;;;;;;;;;;;;25.13;53.72;100452.88;4963373;28;6788;-74
2022/08/26 04:48:30;;;;;;;;;;;;;;;25.12;53.55;100456.41;4959984;28;6995;-74
2022/08/26 04:50:55;;;;;;;;;;;;;;;25.13;53.84;100457.28;4976140;28;6935;-74
2022/08/26 04:53:22;;;;;;;;;;;;;;;25.13;53.72;100454.66;4979664;28;7382;-74
2022/08/26 04:55:48;;;;;;;;;;;;;;;25.13;53.90;100449.41;4964053;28;7260;-74
2022/08/26 04:58:18;;;;;;;;;;;;;;;25.14;53.64;100454.63;4957610;28;6812;-74
2022/08/26 05:00:46;;;;;;;;;;;;;;;25.17;53.97;100458.97;4956052;28;7381;-75
2022/08/26 05:03:13;;;;;;;;;;;;;;;25.19;53.38;100459.81;4995366;28;6789;-75
2022/08/26 05:05:41;;;;;;;;;;;;;;;25.22;53.73;100455.41;4991137;28;6965;-75
2022/08/26 05:08:10;;;;;;;;;;;;;;;25.27;53.42;100457.13;4966665;28;6986;-74
2022/08/26 05:10:44;;;;;;;;;;;;;;;25.29;53.71;100456.19;4976791;28;7368;-74
2022/08/26 05:13:12;;;;;;;;;;;;;;;25.31;53.43;100449.19;4962031;28;7200;-74
2022/08/26 05:15:38;;;;;;;;;;;;;;;25.35;53.59;100453.50;4960870;28;7226;-74
2022/08/26 05:18:05;;;;;;;;;;;;;;;25.34;53.67;100457.00;4975333;28;6976;-74
2022/08/26 05:20:38;;;;;;;;;;;;;;;25.35;53.59;100450.88;4988089;28;6796;-74
2022/08/26 05:23:03;;;;;;;;;;;;;;;25.36;53.71;100450.00;4978682;28;6884;-74
2022/08/26 05:25:30;;;;;;;;;;;;;;;25.37;53.45;100462.22;4977449;28;6956;-74
2022/08/26 05:27:56;;;;;;;;;;;;;;;25.38;53.38;100460.47;4966428;28;7666;-74
2022/08/26 05:30:23;;;;;;;;;;;;;;;25.37;53.28;100458.75;4963320;28;6824;-74
2022/08/26 05:32:49;;;;;;;;;;;;;;;25.38;53.33;100457.84;4958311;28;6979;-74
2022/08/26 05:35:16;;;;;;;;;;;;;;;25.38;53.78;100458.69;4951955;28;7757;-74
2022/08/26 05:37:42;;;;;;;;;;;;;;;25.38;53.54;100463.94;4960432;28;6816;-74
2022/08/26 05:40:09;;;;;;;;;;;;;;;25.40;53.56;100466.56;4972042;28;6808;-74
2022/08/26 05:42:34;;;;;;;;;;;;;;;25.40;54.08;100466.56;4959951;28;7181;-74
2022/08/26 05:45:00;;;;;;;;;;;;;;;25.42;54.00;100479.66;4971885;28;7042;-74
2022/08/26 05:47:26;;;;;;;;;;;;;;;25.41;53.42;100470.91;4991290;28;6944;-74
2022/08/26 05:49:52;;;;;;;;;;;;;;;25.41;53.66;100475.31;4959583;28;7125;-74
2022/08/26 05:52:18;;;;;;;;;;;;;;;25.40;54.04;100470.94;4961353;28;6784;-74
2022/08/26 05:54:44;;;;;;;;;;;;;;;25.41;53.96;100472.69;4966821;28;6792;-74
2022/08/26 05:57:11;;;;;;;;;;;;;;;25.42;53.98;100479.66;4959099;28;6788;-74
2022/08/26 05:59:37;;;;;;;;;;;;;;;25.44;53.88;100473.50;4960948;28;7148;-74
2022/08/26 06:02:04;;;;;;;;;;;;;;;25.47;53.75;100476.09;4965228;28;6792;-74
2022/08/26 06:04:30;;;;;;;;;;;;;;;25.48;54.02;100480.44;4965732;28;7001;-74
2022/08/26 06:06:56;;;;;;;;;;;;;;;25.48;53.92;100483.06;4965475;28;7359;-74
2022/08/26 06:09:23;;;;;;;;;;;;;;;25.46;53.62;100486.59;4967101;28;6939;-74
2022/08/26 06:11:49;;;;;;;;;;;;;;;25.46;53.77;100481.34;4962754;28;7011;-74
2022/08/26 06:14:16;;;;;;;;;;;;;;;25.48;54.25;100490.06;4966862;28;7203;-74
2022/08/26 06:16:43;;;;;;;;;;;;;;;25.47;54.10;100485.72;4978611;28;7134;-74
2022/08/26 06:19:14;;;;;;;;;;;;;;;25.45;54.06;100484.88;4960950;28;7116;-75
2022/08/26 06:21:43;;;;;;;;;;;;;;;25.43;54.32;100489.28;4965953;28;6816;-74
2022/08/26 06:27:07;;;;;;;;;;;;;;;25.40;54.20;100502.41;4960872;28;6803;-74
2022/08/26 06:29:34;;;;;;;;;;;;;;;25.40;54.25;100510.28;4958847;28;6824;-74
2022/08/26 06:32:01;;;;;;;;;;;;;;;25.42;54.39;100500.66;4980140;28;6784;-74
2022/08/26 06:34:28;;;;;;;;;;;;;;;25.44;53.96;100493.63;4989774;28;6848;-74
2022/08/26 06:36:57;;;;;;;;;;;;;;;25.49;54.35;100497.94;4994704;28;7211;-74
2022/08/26 06:39:23;;;;;;;;;;;;;;;25.56;54.25;100501.38;4975385;28;6846;-74
2022/08/26 06:41:49;;;;;;;;;;;;;;;25.61;54.22;100496.94;4960717;28;6804;-74
2022/08/26 06:44:16;;;;;;;;;;;;;;;25.66;53.80;100504.75;4960831;28;6968;-74
2022/08/26 06:46:42;;;;;;;;;;;;;;;25.70;54.17;100505.59;4957208;28;6956;-75
2022/08/26 06:49:09;;;;;;;;;;;;;;;25.74;53.89;100502.03;4960410;28;7153;-74
2022/08/26 06:51:37;;;;;;;;;;;;;;;25.80;53.64;100512.44;4977496;28;7071;-74
2022/08/26 06:54:05;;;;;;;;;;;;;;;25.82;53.89;100510.66;4978545;28;7362;-75
2022/08/26 06:56:39;;;;;;;;;;;;;;;25.83;53.82;100509.78;4985000;28;6792;-74
2022/08/26 06:59:06;;;;;;;;;;;;;;;25.87;53.71;100508.81;4988408;28;7820;-74
2022/08/26 07:01:37;;;;;;;;;;;;;;;25.90;53.41;100500.94;4976219;28;7003;-74
2022/08/26 07:04:05;;;;;;;;;;;;;;;25.95;53.47;100505.22;4990879;28;7186;-74
2022/08/26 07:06:39;;;;;;;;;;;;;;;26.03;53.55;100508.63;4960474;28;7382;-75
2022/08/26 07:09:08;;;;;;;;;;;;;;;26.04;53.26;100503.34;4960612;28;7008;-75
2022/08/26 07:11:38;;;;;;;;;;;;;;;26.05;53.06;100505.09;4963803;28;6792;-76
2022/08/26 07:14:05;;;;;;;;;;;;;;;26.05;53.34;100504.19;4971341;28;7901;-76
2022/08/26 07:16:31;;;;;;;;;;;;;;;26.05;53.12;100509.44;4979892;28;8624;-76
2022/08/26 07:18:58;;;;;;;;;;;;;;;26.06;53.24;100511.19;4959534;28;6786;-76
2022/08/26 07:21:25;;;;;;;;;;;;;;;26.08;53.21;100509.44;4959755;28;6780;-76
2022/08/26 07:23:53;;;;;;;;;;;;;;;26.13;52.98;100512.00;4975174;28;7124;-76
2022/08/26 07:26:24;;;;;;;;;;;;;;;26.19;53.03;100514.50;4965265;28;6812;-75
2022/08/26 07:28:51;;;;;;;;;;;;;;;26.22;52.78;100518.88;4992088;28;7271;-76
2022/08/26 07:31:21;;;;;;;;;;;;;;;26.24;52.93;100515.34;4960896;28;6875;-76
2022/08/26 07:33:48;;;;;;;;;;;;;;;26.27;52.81;100523.16;4958390;28;6986;-76
2022/08/26 07:36:16;;;;;;;;;;;;;;;26.31;52.74;100522.22;4945211;28;7039;-75
2022/08/26 07:38:44;;;;;;;;;;;;;;;26.35;52.80;100523.03;4993312;28;6779;-76
2022/08/26 07:41:12;;;;;;;;;;;;;;;26.36;52.59;100526.53;4955486;28;7107;-76
2022/08/26 07:43:39;;;;;;;;;;;;;;;26.33;52.39;100530.09;4968901;28;7021;-76
2022/08/26 07:46:05;;;;;;;;;;;;;;;26.34;52.36;100526.56;4991846;28;6955;-76
2022/08/26 07:48:32;;;;;;;;;;;;;;;26.37;52.27;100529.16;4964006;28;7181;-76
2022/08/26 07:50:58;;;;;;;;;;;;;;;26.41;52.52;100522.06;4974527;28;7234;-76
2022/08/26 07:53:24;;;;;;;;;;;;;;;26.48;52.45;100521.97;4975204;28;8394;-76
2022/08/26 07:55:49;;;;;;;;;;;;;;;26.59;52.40;100528.81;4962443;28;7133;-75
2022/08/26 07:58:16;;;;;;;;;;;;;;;26.70;52.25;100526.84;4957555;28;6943;-76
2022/08/26 08:00:42;;;;;;;;;;;;;;;26.83;52.11;100526.63;4954457;28;8463;-76
2022/08/26 08:03:09;;;;;;;;;;;;;;;26.93;51.84;100522.97;4957237;28;7266;-76
2022/08/26 08:05:35;;;;;;;;;;;;;;;27.00;51.76;100527.22;4963241;28;6944;-76
2022/08/26 08:08:06;;;;;;;;;;;;;;;27.06;51.39;100528.03;4997112;28;6923;-76
2022/08/26 08:10:33;;;;;;;;;;;;;;;27.08;51.06;100521.81;4998693;28;6792;-76
2022/08/26 08:12:59;;;;;;;;;;;;;;;27.09;51.03;100527.97;4993224;28;7137;-76
2022/08/26 08:15:29;;;;;;;;;;;;;;;27.05;50.80;100526.28;4993230;28;7020;-76
2022/08/26 08:17:56;;;;;;;;;;;;;;;27.02;50.89;100524.59;4964108;28;6795;-76
2022/08/26 08:20:22;;;;;;;;;;;;;;;26.99;51.03;100522.88;4964843;28;6935;-76
2022/08/26 08:22:49;;;;;;;;;;;;;;;26.98;50.89;100518.50;4990699;28;7245;-76
2022/08/26 08:25:15;;;;;;;;;;;;;;;26.97;50.91;100524.66;4954688;28;7011;-77
2022/08/26 08:27:43;;;;;;;;;;;;;;;26.97;51.04;100522.03;4970673;28;7326;-76
2022/08/26 08:30:12;;;;;;;;;;;;;;;26.95;50.87;100523.84;4980157;28;7524;-76
2022/08/26 08:32:38;;;;;;;;;;;;;;;26.94;50.73;100535.22;4939632;28;6930;-76
2022/08/26 08:35:07;;;;;;;;;;;;;;;26.92;50.74;100525.66;4979044;28;7430;-76
2022/08/26 08:37:33;;;;;;;;;;;;;;;26.91;50.53;100535.28;4962249;28;7227;-76
2022/08/26 08:39:59;;;;;;;;;;;;;;;26.89;50.52;100527.41;4994116;28;6976;-76
2022/08/26 08:42:42;;;;;;;;;;;;;;;26.89;51.24;100535.31;4954356;28;6967;-76
2022/08/26 08:45:14;;;;;;;;;;;;;;;26.88;51.01;100533.56;4958211;28;7014;-76
2022/08/26 08:47:53;;;;;;;;;;;;;;;26.90;50.81;100530.94;4959455;28;7297;-76
2022/08/26 08:50:35;;;;;;;;;;;;;;;26.89;50.97;100529.19;4977978;28;7129;-76
2022/08/26 08:53:40;;;;;;;;;;;;;;;26.90;50.83;100525.66;4966636;28;7239;-76
2022/08/26 08:56:33;;;;;;;;;;;;;;;26.89;50.73;100534.47;4958608;28;7139;-76
2022/08/26 08:59:09;;;;;;;;;;;;;;;26.86;50.65;100545.84;4992404;28;7218;-77
2022/08/26 09:01:50;;;;;;;;;;;;;;;26.81;50.86;100533.69;4957868;28;7187;-76
2022/08/26 09:04:47;;;;;;;;;;;;;;;26.73;50.66;100542.56;4952946;28;6792;-76
2022/08/26 09:07:38;;;;;;;;;;;;;;;26.68;50.78;100549.69;4970064;28;6999;-76
2022/08/26 09:10:50;;;;;;;;;;;;;;;26.64;50.98;100547.97;4968533;28;6990;-76
2022/08/26 09:13:22;;;;;;;;;;;;;;;26.58;51.26;100554.19;4991147;28;7247;-77
2022/08/26 09:16:07;;;;;;;;;;;;;;;26.55;51.16;100549.00;4960612;28;7324;-76
2022/08/26 09:19:00;;;;;;;;;;;;;;;26.51;51.07;100549.97;4955503;28;6977;-76
2022/08/26 09:21:26;;;;;;;;;;;;;;;26.47;51.73;100559.66;4952478;28;7267;-76
2022/08/26 09:23:55;;;;;;;;;;;;;;;26.47;51.58;100551.78;4968090;28;7179;-76
2022/08/26 09:26:38;;;;;;;;;;;;;;;26.48;51.76;100561.38;4957019;28;7620;-76
2022/08/26 09:29:19;;;;;;;;;;;;;;;26.50;51.56;100563.13;4952513;28;7392;-76
2022/08/26 09:31:45;;;;;;;;;;;;;;;26.51;51.75;100568.34;4978638;28;6965;-77
2022/08/26 09:34:22;;;;;;;;;;;;;;;26.50;51.55;100568.38;4962476;28;7060;-76
2022/08/26 09:36:55;;;;;;;;;;;;;;;26.51;51.89;100567.47;4938242;28;7022;-76
2022/08/26 09:39:26;;;;;;;;;;;;;;;26.54;51.63;100556.91;4959082;28;6811;-76
2022/08/26 09:42:24;;;;;;;;;;;;;;;26.57;51.61;100567.38;4956092;28;7769;-76
2022/08/26 09:45:01;;;;;;;;;;;;;;;26.59;51.72;100568.22;4964117;28;6812;-77
2022/08/26 09:47:40;;;;;;;;;;;;;;;26.62;51.50;100576.94;4984220;28;7095;-77
2022/08/26 09:50:28;;;;;;;;;;;;;;;26.63;51.53;100567.28;4944423;28;6955;-76
2022/08/26 09:53:17;;;;;;;;;;;;;;;26.64;51.26;100568.16;4991115;28;7028;-76
2022/08/26 09:55:47;;;;;;;;;;;;;;;26.65;51.26;100562.84;4990113;28;6839;-76
2022/08/26 09:58:33;;;;;;;;;;;;;;;26.68;51.11;100568.06;4967082;28;6872;-76
2022/08/26 10:01:03;;;;;;;;;;;;;;;26.73;51.04;100566.22;4989128;28;7098;-77
2022/08/26 10:03:36;;;;;;;;;;;;;;;26.81;51.21;100566.13;4961086;28;6925;-77
2022/08/26 10:06:15;;;;;;;;;;;;;;;26.95;50.94;100559.78;4961223;28;7053;-76
2022/08/26 10:08:49;;;;;;;;;;;;;;;27.02;50.59;100558.78;4956018;28;7453;-76
2022/08/26 10:11:49;;;;;;;;;;;;;;;27.07;50.57;100556.06;4947090;28;7089;-76
2022/08/26 10:14:41;;;;;;;;;;;;;;;27.12;50.71;100555.06;4954954;28;7333;-76
2022/08/26 10:17:34;;;;;;;;;;;;;;;27.20;50.22;100552.28;4956771;28;8199;-76
2022/08/26 10:20:13;;;;;;;;;;;;;;;27.29;50.22;100565.28;4975463;28;7248;-76
2022/08/26 10:22:41;;;;;;;;;;;;;;;27.39;50.14;100557.19;4955467;28;6796;-76
2022/08/26 10:25:16;;;;;;;;;;;;;;;27.44;49.69;100555.34;4957042;28;7150;-76
2022/08/26 10:28:17;;;;;;;;;;;;;;;27.47;49.68;100552.66;4957884;28;7213;-76
2022/08/26 10:30:58;;;;;;;;;;;;;;;27.46;49.18;100553.56;4958388;28;7515;-76
2022/08/26 10:33:24;;;;;;;;;;;;;;;27.41;49.32;100548.38;4989165;28;7186;-76
2022/08/26 10:35:57;;;;;;;;;;;;;;;27.35;49.39;100547.66;4958882;28;6839;-76
2022/08/26 10:38:33;;;;;;;;;;;;;;;27.30;49.51;100550.38;4968014;28;7241;-76
2022/08/26 10:41:16;;;;;;;;;;;;;;;27.28;49.41;100553.03;4935564;28;7501;-76
2022/08/26 10:43:57;;;;;;;;;;;;;;;27.26;49.47;100554.81;4985979;28;7259;-76
2022/08/26 10:46:33;;;;;;;;;;;;;;;27.22;49.22;100555.75;4957841;28;7412;-76
2022/08/26 10:49:12;;;;;;;;;;;;;;;27.16;49.61;100554.09;4967981;28;6819;-76
2022/08/26 10:52:07;;;;;;;;;;;;;;;27.15;49.58;100548.91;4958344;28;6812;-76
2022/08/26 10:54:53;;;;;;;;;;;;;;;27.15;49.43;100549.75;4960926;28;7108;-76
2022/08/26 10:57:38;;;;;;;;;;;;;;;27.20;49.88;100559.34;4988235;28;8314;-75
2022/08/26 11:03:34;;;;;;;;;;;;;;;27.24;49.79;100553.97;4955077;28;11205;-75
2022/08/26 11:06:23;;;;;;;;;;;;;;;27.30;49.66;100556.47;4989366;28;7015;-76
2022/08/26 11:09:09;;;;;;;;;;;;;;;27.34;49.38;100559.91;4955288;28;7217;-76
2022/08/26 11:11:40;;;;;;;;;;;;;;;27.38;49.33;100550.22;4958693;28;6792;-76
2022/08/26 11:14:28;;;;;;;;;;;;;;;27.42;49.20;100542.22;4953275;28;7347;-76
2022/08/26 11:16:58;;;;;;;;;;;;;;;27.49;49.12;100550.00;4984087;28;7074;-76
2022/08/26 11:19:40;;;;;;;;;;;;;;;27.56;49.35;100549.00;4985448;28;7637;-76
2022/08/26 11:22:29;;;;;;;;;;;;;;;27.65;49.07;100537.44;4953275;28;6800;-76
2022/08/26 11:24:55;;;;;;;;;;;;;;;27.76;48.91;100545.06;4987901;28;7278;-76
2022/08/26 11:27:36;;;;;;;;;;;;;;;27.87;48.91;100548.38;4954917;28;6936;-76
2022/08/26 11:30:19;;;;;;;;;;;;;;;27.93;48.42;100547.38;4994487;28;7197;-76
2022/08/26 11:32:51;;;;;;;;;;;;;;;27.99;48.18;100548.09;4963010;28;11315;-75
2022/08/26 11:35:16;;;;;;;;;;;;;;;28.03;48.06;100546.25;4946826;28;6984;-75
2022/08/26 11:38:17;;;;;;;;;;;;;;;28.04;47.55;100547.09;4953544;28;7237;-76
2022/08/26 11:40:43;;;;;;;;;;;;;;;28.05;48.03;100551.47;4951994;28;6991;-76
2022/08/26 11:43:25;;;;;;;;;;;;;;;28.05;47.46;100548.81;4954622;28;6832;-76
2022/08/26 11:46:05;;;;;;;;;;;;;;;28.03;47.41;100548.88;4946868;28;7015;-76
2022/08/26 11:48:36;;;;;;;;;;;;;;;28.02;47.31;100544.53;4957332;28;6815;-76
2022/08/26 11:51:31;;;;;;;;;;;;;;;28.02;47.43;100551.53;4968243;28;6978;-76
2022/08/26 11:54:19;;;;;;;;;;;;;;;27.99;47.20;100555.09;4954148;28;6997;-76
2022/08/26 11:56:51;;;;;;;;;;;;;;;27.93;46.90;100547.38;4967812;28;8948;-75
2022/08/26 11:59:32;;;;;;;;;;;;;;;27.89;47.08;100550.94;4967372;28;7319;-78
2022/08/26 12:02:00;;;;;;;;;;;;;;;27.83;47.40;100547.56;4967806;28;8535;-74
2022/08/26 12:04:36;;;;;;;;;;;;;;;27.76;46.59;100551.22;4986663;28;7852;-75
2022/08/26 12:07:07;;;;;;;;;;;;;;;27.69;46.67;100553.13;4972870;28;7290;-74
2022/08/26 12:09:36;;;;;;;;;;;;;;;27.63;46.83;100550.59;4958575;28;6983;-76
2022/08/26 12:12:22;;;;;;;;;;;;;;;27.59;47.13;100559.47;4979536;28;6966;-76
2022/08/26 12:14:48;;;;;;;;;;;;;;;27.58;47.52;100550.69;4950089;28;7058;-75
2022/08/26 12:17:26;;;;;;;;;;;;;;;27.63;47.49;100552.38;4976380;28;7088;-76
2022/08/26 12:19:52;;;;;;;;;;;;;;;27.68;47.13;100545.25;4984496;28;6946;-75
2022/08/26 12:22:21;;;;;;;;;;;;;;;27.71;47.13;100547.81;4966976;28;7729;-76
2022/08/26 12:24:59;;;;;;;;;;;;;;;27.74;46.96;100545.13;4947513;28;6796;-76
2022/08/26 12:27:29;;;;;;;;;;;;;;;27.72;46.77;100549.56;4949280;28;6824;-76
2022/08/26 12:30:33;;;;;;;;;;;;;;;27.66;46.81;100550.53;4986282;28;7761;-76
2022/08/26 12:33:10;;;;;;;;;;;;;;;27.59;46.77;100548.94;4947395;28;11418;-76
2022/08/26 12:35:39;;;;;;;;;;;;;;;27.58;47.30;100548.06;4932483;28;7399;-76
2022/08/26 12:38:08;;;;;;;;;;;;;;;27.65;47.17;100547.94;4963868;28;6804;-76
2022/08/26 12:40:44;;;;;;;;;;;;;;;27.71;47.32;100553.06;4952248;28;7258;-76
2022/08/26 12:43:33;;;;;;;;;;;;;;;27.75;46.66;100551.25;4961529;28;7205;-76
2022/08/26 12:45:59;;;;;;;;;;;;;;;27.79;46.24;100550.28;4947474;28;7007;-76
2022/08/26 12:48:32;;;;;;;;;;;;;;;27.81;46.54;100559.88;4943360;28;7408;-75
2022/08/26 12:50:59;;;;;;;;;;;;;;;27.82;46.49;100555.47;4946735;28;6824;-75
2022/08/26 12:53:32;;;;;;;;;;;;;;;27.82;46.24;100556.38;4981299;28;7164;-74
2022/08/26 12:56:03;;;;;;;;;;;;;;;27.84;46.69;100553.69;4962643;28;7015;-74
2022/08/26 12:58:37;;;;;;;;;;;;;;;27.85;46.15;100556.28;4980385;28;6819;-74
2022/08/26 13:01:03;;;;;;;;;;;;;;;27.85;46.48;100555.41;4947624;28;6888;-74
2022/08/26 13:03:37;;;;;;;;;;;;;;;27.79;45.93;100552.94;4949507;28;7120;-75
2022/08/26 13:06:16;;;;;;;;;;;;;;;27.74;46.03;100550.38;4966117;28;6998;-74
2022/08/26 13:08:55;;;;;;;;;;;;;;;27.67;46.31;100544.41;4955631;28;6816;-74
2022/08/26 13:11:38;;;;;;;;;;;;;;;27.61;46.33;100548.91;4985498;28;7197;-74
2022/08/26 13:14:08;;;;;;;;;;;;;;;27.55;46.41;100542.88;4957366;28;7133;-74
2022/08/26 13:16:36;;;;;;;;;;;;;;;27.52;46.54;100548.16;4955874;28;7248;-74